Buoy 34513

sailwx.info

Track history (hours):
 
Tides and Currents Weather Stations Pressure Air Temp Water Temp Dewpoint Dewpoint Depression Visibility Wind Speed Wind Dir Waves Ship Positions

Drifting buoy 34513

Last reported at 2018-Mar-10 22:00 UTC. Time now 2018-Jul-23 07:53 UTC.
Position S 28°33' W 103°10'.
Warning: this ship's position is months out of date.

Barometer 1022.3 mb
Water temperature 25.4 ° C

Date/timePositionNaut miles runAvg speedWind from/ knotsBaromVisibWave heightAir tempDewpointWater temp
2018-Mar-10 22:00S 28°33' W 103°10'0 0.0 1022.3 25.4
2018-Mar-10 21:00S 28°33' W 103°10'2 0.6 1022.5 25.4
2018-Mar-10 17:00S 28°35' W 103°08'0 0.0 1023.7 25.4
2018-Mar-10 16:00S 28°35' W 103°08'1 0.8 1023.7 25.4
2018-Mar-10 15:00S 28°35' W 103°08'1 0.8 1023.3 25.4
2018-Mar-10 14:00S 28°36' W 103°07'1 0.3 1023.1 25.4
2018-Mar-10 12:00S 28°36' W 103°07'0 0.0 1022.2 25.4
2018-Mar-10 11:00S 28°36' W 103°07'0 0.0 1022.0 25.4
2018-Mar-10 10:00S 28°36' W 103°07'0 0.0 1022.1 25.4
2018-Mar-10 09:00S 28°36' W 103°07'2 0.4 1022.5 25.4
2018-Mar-10 05:00S 28°36' W 103°05'1 0.5 1024.2 25.5
2018-Mar-10 04:00S 28°36' W 103°04'1 0.5 1024.4 25.5
2018-Mar-10 03:00S 28°36' W 103°04'1 0.8 1024.0 25.6
2018-Mar-10 02:00S 28°37' W 103°03'1 1.1 1023.6 25.6
2018-Mar-10 01:00S 28°37' W 103°02'1 0.6 1023.1 25.6
2018-Mar-10 00:00S 28°37' W 103°02'1 0.8 1022.9 25.6
2018-Mar-09 23:00S 28°38' W 103°01'0 0.0 1022.7 25.6
2018-Mar-09 22:00S 28°38' W 103°01'4 0.9 1022.9 25.6
2018-Mar-09 17:00S 28°40' W 102°57'1 0.3 1025.4 25.6
2018-Mar-09 15:00S 28°41' W 102°57'1 1.2 1025.0 25.6
2018-Mar-09 14:00S 28°42' W 102°57'1 0.8 1024.6 25.6
2018-Mar-09 13:00S 28°43' W 102°56'0 0.0 1024.2 25.6
2018-Mar-09 12:00S 28°43' W 102°56'1 0.3 1023.7 25.6
2018-Mar-09 10:00S 28°43' W 102°56'0 0.0 1023.5 25.7
2018-Mar-09 09:00S 28°43' W 102°56'2 0.6 1023.7 25.7
2018-Mar-09 05:00S 28°44' W 102°54'0 0.0 1024.8 25.8
2018-Mar-09 04:00S 28°44' W 102°54'1 1.1 1024.6 25.9
2018-Mar-09 03:00S 28°44' W 102°53'1 0.8 1024.3 25.9
2018-Mar-09 02:00S 28°45' W 102°52'1 0.5 1023.6 25.9
2018-Mar-09 01:00S 28°45' W 102°52'1 0.5 1022.9 26.0
2018-Mar-09 00:00S 28°45' W 102°51'6 6.4 1022.6 26.0
2018-Mar-08 23:00S 28°49' W 102°45'0 0.0 1022.3 26.1
2018-Mar-08 22:00S 28°49' W 102°45'2 0.3 1022.0 26.1
2018-Mar-08 16:00S 28°50' W 102°44'0 0.0 1022.9 26.1
2018-Mar-08 15:00S 28°50' W 102°44'2 1.9 1022.4 26.1
2018-Mar-08 14:00S 28°52' W 102°43'0 0.0 1021.8 26.1
2018-Mar-08 13:00S 28°52' W 102°43'2 1.9 1021.2 26.2
2018-Mar-08 12:00S 28°53' W 102°43'1 1.1 1020.9 26.2
2018-Mar-08 11:00S 28°53' W 102°44'0 0.0 1020.3 26.2
2018-Mar-08 10:00S 28°53' W 102°44'0 0.0 1020.6 26.2
2018-Mar-08 09:00S 28°53' W 102°44'1 0.2 1020.9 26.3
2018-Mar-08 05:00S 28°54' W 102°43'0 0.0 1022.3 26.4
2018-Mar-08 04:00S 28°54' W 102°43'1 0.5 1022.3 26.4
2018-Mar-08 03:00S 28°54' W 102°43'1 0.8 1021.9 26.5
2018-Mar-08 02:00S 28°55' W 102°42'0 0.0 26.6
2018-Mar-08 01:00S 28°55' W 102°42'1 0.8 1021.4 26.8
2018-Mar-08 00:00S 28°55' W 102°41'1 0.5 1021.4 27.0
2018-Mar-07 23:00S 28°55' W 102°41'2 0.3 1021.4 27.1
2018-Mar-07 17:00S 28°57' W 102°40'1 0.8 1023.5 26.4
2018-Mar-07 16:00S 28°58' W 102°40'1 0.6 1023.5 26.3
2018-Mar-07 15:00S 28°58' W 102°40'1 0.6 1023.3 26.2
2018-Mar-07 14:00S 28°59' W 102°40'1 0.5 1022.9 26.2
2018-Mar-07 13:00S 28°59' W 102°40'1 0.8 1022.3 26.2
2018-Mar-07 12:00S 28°59' W 102°40'1 0.5 1022.0 26.2
2018-Mar-07 11:00S 28°59' W 102°40'0 0.0 1021.7 26.2
2018-Mar-07 10:00S 28°59' W 102°40'0 0.0 1021.7 26.2
2018-Mar-07 09:00S 28°59' W 102°40'1 0.1 1022.2 26.2
2018-Mar-07 04:00S 29°00' W 102°40'0 0.0 1023.6 26.6
2018-Mar-07 03:00S 29°00' W 102°40'1 0.5 1023.4 26.6
2018-Mar-07 02:00S 29°00' W 102°41'0 0.0 1023.0 26.7
2018-Mar-07 01:00S 29°00' W 102°41'1 0.5 1022.6 26.9
2018-Mar-07 00:00S 29°00' W 102°40'1 0.8 1022.4 27.0
2018-Mar-06 23:00S 29°01' W 102°40'1 0.4 1022.5 27.2
2018-Mar-06 21:00S 29°00' W 102°39'2 0.5 1023.0 27.4
2018-Mar-06 16:00S 29°02' W 102°38'1 0.8 1024.5 26.3
2018-Mar-06 15:00S 29°02' W 102°39'1 0.6 1024.1 26.2
2018-Mar-06 14:00S 29°02' W 102°39'1 0.3 1023.5 26.2
2018-Mar-06 12:00S 29°02' W 102°38'1 0.3 1022.6 26.2
2018-Mar-06 10:00S 29°02' W 102°39'0 0.0 1022.7 26.2
2018-Mar-06 09:00S 29°02' W 102°39'1 0.1 1022.7 26.2
2018-Mar-06 05:00S 29°02' W 102°38'0 0.0 1023.8 26.2
2018-Mar-06 04:00S 29°02' W 102°38'1 0.8 1023.9 26.3
2018-Mar-06 03:00S 29°03' W 102°38'0 0.0 1023.6 26.3
2018-Mar-06 02:00S 29°03' W 102°38'0 0.0 1023.3 26.4
2018-Mar-06 01:00S 29°03' W 102°38'1 0.5 1023.0 26.4
2018-Mar-06 00:00S 29°03' W 102°37'0 0.0 1022.9 26.4
2018-Mar-05 23:00S 29°03' W 102°37'1 0.3 1022.7 26.6
2018-Mar-05 21:00S 29°02' W 102°37'2 0.4 1023.0 26.4
2018-Mar-05 17:00S 29°03' W 102°35'0 0.0 1024.0 26.1
2018-Mar-05 16:00S 29°03' W 102°35'1 0.5 1023.7 26.1
2018-Mar-05 15:00S 29°03' W 102°35'1 0.6 1023.3 26.1
2018-Mar-05 14:00S 29°04' W 102°35'1 0.6 1022.8 26.1
2018-Mar-05 13:00S 29°04' W 102°35'1 0.5 1022.3 26.1
2018-Mar-05 12:00S 29°04' W 102°34'1 0.5 1022.0 26.1
2018-Mar-05 11:00S 29°04' W 102°35'0 0.0 1021.8 26.1
2018-Mar-05 10:00S 29°04' W 102°35'0 0.0 1022.0 26.1
2018-Mar-05 09:00S 29°04' W 102°35'1 0.2 1022.3 26.1
2018-Mar-05 05:00S 29°04' W 102°34'1 0.5 1023.4 26.2
2018-Mar-05 04:00S 29°04' W 102°34'1 0.8 1023.2 26.2
2018-Mar-05 03:00S 29°03' W 102°33'1 0.6 1022.8 26.2
2018-Mar-05 02:00S 29°04' W 102°33'1 0.6 1022.3 26.2
2018-Mar-05 01:00S 29°03' W 102°33'1 1.0 1022.0 26.2
2018-Mar-05 00:00S 29°03' W 102°32'0 0.0 1021.8 26.2
2018-Mar-04 23:00S 29°03' W 102°32'1 0.8 1021.8 26.2
2018-Mar-04 22:00S 29°02' W 102°31'0 0.0 1021.9 26.3
2018-Mar-04 21:00S 29°02' W 102°31'2 0.3 1022.1 26.3
2018-Mar-04 15:00S 29°02' W 102°29'1 0.8 1022.7 26.1
2018-Mar-04 14:00S 29°03' W 102°29'0 0.0 1022.1 26.1
2018-Mar-04 13:00S 29°03' W 102°29'0 0.0 1021.8 26.1
2018-Mar-04 12:00S 29°03' W 102°29'0 0.0 1021.5 26.1
2018-Mar-04 11:00S 29°03' W 102°29'0 0.0 1021.1 26.1
2018-Mar-04 10:00S 29°03' W 102°29'0 0.0 1021.1 26.1
2018-Mar-04 09:00S 29°03' W 102°29'0 0.0 1021.3 26.1
2018-Mar-04 08:00S 29°03' W 102°29'1 0.4 1021.7 26.1
2018-Mar-04 05:00S 29°02' W 102°28'1 0.8 1022.3 26.2
2018-Mar-04 04:00S 29°03' W 102°27'0 0.0 1022.2 26.3
2018-Mar-04 03:00S 29°03' W 102°27'1 0.5 1021.9 26.4
2018-Mar-04 02:00S 29°03' W 102°26'1 0.8 1021.2 26.4
2018-Mar-04 01:00S 29°04' W 102°27'1 0.5 1021.0 26.5
2018-Mar-03 23:00S 29°04' W 102°26'0 0.0 1020.6 26.6
2018-Mar-03 22:00S 29°04' W 102°26'2 0.3 1020.6 26.6
2018-Mar-03 16:00S 29°05' W 102°25'1 0.5 1021.6 26.1
2018-Mar-03 15:00S 29°05' W 102°24'1 0.6 1021.2 26.1
2018-Mar-03 13:00S 29°06' W 102°24'0 0.0 1020.2 26.1
2018-Mar-03 12:00S 29°06' W 102°24'1 0.2 1019.8 26.1
2018-Mar-03 09:00S 29°07' W 102°24'1 0.3 1020.0 26.2
2018-Mar-03 05:00S 29°08' W 102°24'1 0.5 1021.0 26.4
2018-Mar-03 04:00S 29°08' W 102°25'1 0.6 1021.1 26.4
2018-Mar-03 02:00S 29°09' W 102°25'0 0.0 1020.2 26.6
2018-Mar-03 01:00S 29°09' W 102°25'1 0.5 1019.8 26.7
2018-Mar-03 00:00S 29°09' W 102°25'0 0.0 1019.6 26.8
2018-Mar-02 22:00S 29°09' W 102°25'1 0.2 1019.8 26.9
2018-Mar-02 17:00S 29°10' W 102°26'1 0.8 1021.3 26.4
2018-Mar-02 16:00S 29°10' W 102°25'1 0.4 1021.4 26.2
2018-Mar-02 14:00S 29°11' W 102°26'0 0.0 1020.7 26.2
2018-Mar-02 13:00S 29°11' W 102°26'1 0.6 1020.1 26.2
2018-Mar-02 12:00S 29°11' W 102°26'1 0.5 1019.7 26.3
2018-Mar-02 11:00S 29°11' W 102°25'1 0.5 1019.6 26.4
2018-Mar-02 10:00S 29°11' W 102°26'0 0.0 1019.5 26.4
2018-Mar-02 09:00S 29°11' W 102°26'1 0.2 1019.9 26.4
2018-Mar-02 05:00S 29°12' W 102°26'1 0.6 1021.6 26.6
2018-Mar-02 04:00S 29°13' W 102°26'0 0.0 1021.6 26.8
2018-Mar-02 03:00S 29°13' W 102°26'0 0.0 1021.0 27.0
2018-Mar-02 02:00S 29°13' W 102°26'0 0.0 1020.6 27.3
2018-Mar-02 01:00S 29°13' W 102°26'1 1.2 1020.3 28.1
2018-Mar-02 00:00S 29°11' W 102°26'1 0.6 1020.1 28.4
2018-Mar-01 23:00S 29°12' W 102°26'1 0.5 1019.9 28.8
2018-Mar-01 22:00S 29°12' W 102°27'1 0.2 1020.3 28.2
2018-Mar-01 16:00S 29°11' W 102°26'1 0.8 1022.8 25.9
2018-Mar-01 15:00S 29°12' W 102°25'0 0.0 1022.3 25.9
2018-Mar-01 14:00S 29°12' W 102°25'1 0.5 1022.0 25.9
2018-Mar-01 13:00S 29°12' W 102°25'0 0.0 1021.8 25.9
2018-Mar-01 12:00S 29°12' W 102°25'1 0.6 1021.4 25.8
2018-Mar-01 11:00S 29°13' W 102°25'0 0.0 1021.0 25.9
2018-Mar-01 10:00S 29°13' W 102°25'1 0.2 1021.2 25.9
2018-Mar-01 05:00S 29°13' W 102°24'1 0.8 1023.5 25.9
2018-Mar-01 04:00S 29°13' W 102°25'1 0.8 1023.5 25.9
2018-Mar-01 03:00S 29°13' W 102°24'1 0.6 1023.1 26.0
2018-Mar-01 02:00S 29°13' W 102°24'1 0.6 1022.8 26.1
2018-Mar-01 01:00S 29°13' W 102°24'0 0.0 1022.4 26.1
2018-Mar-01 00:00S 29°13' W 102°24'1 0.6 1022.4 26.1
2018-Feb-28 23:00S 29°13' W 102°24'0 0.0 1022.4 26.1
2018-Feb-28 22:00S 29°13' W 102°24'   1022.7 26.2
Track history (hours):
 
Tides and Currents Weather Stations Pressure Air Temp Water Temp Dewpoint Dewpoint Depression Visibility Wind Speed Wind Dir Waves Ship Positions

Drifting buoy 34513

Last reported at 2018-Mar-10 22:00 UTC. Time now 2018-Jul-23 07:53 UTC.
Position S 28°33' W 103°10'.
Warning: this ship's position is months out of date.

Barometer 1022.3 mb
Water temperature 25.4 ° C

Date/timePositionNaut miles runAvg speedWind from/ knotsBaromVisibWave heightAir tempDewpointWater temp
2018-Mar-10 22:00S 28°33' W 103°10'0 0.0 1022.3 25.4
2018-Mar-10 21:00S 28°33' W 103°10'2 0.6 1022.5 25.4
2018-Mar-10 17:00S 28°35' W 103°08'0 0.0 1023.7 25.4
2018-Mar-10 16:00S 28°35' W 103°08'1 0.8 1023.7 25.4
2018-Mar-10 15:00S 28°35' W 103°08'1 0.8 1023.3 25.4
2018-Mar-10 14:00S 28°36' W 103°07'1 0.3 1023.1 25.4
2018-Mar-10 12:00S 28°36' W 103°07'0 0.0 1022.2 25.4
2018-Mar-10 11:00S 28°36' W 103°07'0 0.0 1022.0 25.4
2018-Mar-10 10:00S 28°36' W 103°07'0 0.0 1022.1 25.4
2018-Mar-10 09:00S 28°36' W 103°07'2 0.4 1022.5 25.4
2018-Mar-10 05:00S 28°36' W 103°05'1 0.5 1024.2 25.5
2018-Mar-10 04:00S 28°36' W 103°04'1 0.5 1024.4 25.5
2018-Mar-10 03:00S 28°36' W 103°04'1 0.8 1024.0 25.6
2018-Mar-10 02:00S 28°37' W 103°03'1 1.1 1023.6 25.6
2018-Mar-10 01:00S 28°37' W 103°02'1 0.6 1023.1 25.6
2018-Mar-10 00:00S 28°37' W 103°02'1 0.8 1022.9 25.6
2018-Mar-09 23:00S 28°38' W 103°01'0 0.0 1022.7 25.6
2018-Mar-09 22:00S 28°38' W 103°01'4 0.9 1022.9 25.6
2018-Mar-09 17:00S 28°40' W 102°57'1 0.3 1025.4 25.6
2018-Mar-09 15:00S 28°41' W 102°57'1 1.2 1025.0 25.6
2018-Mar-09 14:00S 28°42' W 102°57'1 0.8 1024.6 25.6
2018-Mar-09 13:00S 28°43' W 102°56'0 0.0 1024.2 25.6
2018-Mar-09 12:00S 28°43' W 102°56'1 0.3 1023.7 25.6
2018-Mar-09 10:00S 28°43' W 102°56'0 0.0 1023.5 25.7
2018-Mar-09 09:00S 28°43' W 102°56'2 0.6 1023.7 25.7
2018-Mar-09 05:00S 28°44' W 102°54'0 0.0 1024.8 25.8
2018-Mar-09 04:00S 28°44' W 102°54'1 1.1 1024.6 25.9
2018-Mar-09 03:00S 28°44' W 102°53'1 0.8 1024.3 25.9
2018-Mar-09 02:00S 28°45' W 102°52'1 0.5 1023.6 25.9
2018-Mar-09 01:00S 28°45' W 102°52'1 0.5 1022.9 26.0
2018-Mar-09 00:00S 28°45' W 102°51'6 6.4 1022.6 26.0
2018-Mar-08 23:00S 28°49' W 102°45'0 0.0 1022.3 26.1
2018-Mar-08 22:00S 28°49' W 102°45'2 0.3 1022.0 26.1
2018-Mar-08 16:00S 28°50' W 102°44'0 0.0 1022.9 26.1
2018-Mar-08 15:00S 28°50' W 102°44'2 1.9 1022.4 26.1
2018-Mar-08 14:00S 28°52' W 102°43'0 0.0 1021.8 26.1
2018-Mar-08 13:00S 28°52' W 102°43'2 1.9 1021.2 26.2
2018-Mar-08 12:00S 28°53' W 102°43'1 1.1 1020.9 26.2
2018-Mar-08 11:00S 28°53' W 102°44'0 0.0 1020.3 26.2
2018-Mar-08 10:00S 28°53' W 102°44'0 0.0 1020.6 26.2
2018-Mar-08 09:00S 28°53' W 102°44'1 0.2 1020.9 26.3
2018-Mar-08 05:00S 28°54' W 102°43'0 0.0 1022.3 26.4
2018-Mar-08 04:00S 28°54' W 102°43'1 0.5 1022.3 26.4
2018-Mar-08 03:00S 28°54' W 102°43'1 0.8 1021.9 26.5
2018-Mar-08 02:00S 28°55' W 102°42'0 0.0 26.6
2018-Mar-08 01:00S 28°55' W 102°42'1 0.8 1021.4 26.8
2018-Mar-08 00:00S 28°55' W 102°41'1 0.5 1021.4 27.0
2018-Mar-07 23:00S 28°55' W 102°41'2 0.3 1021.4 27.1
2018-Mar-07 17:00S 28°57' W 102°40'1 0.8 1023.5 26.4
2018-Mar-07 16:00S 28°58' W 102°40'1 0.6 1023.5 26.3
2018-Mar-07 15:00S 28°58' W 102°40'1 0.6 1023.3 26.2
2018-Mar-07 14:00S 28°59' W 102°40'1 0.5 1022.9 26.2
2018-Mar-07 13:00S 28°59' W 102°40'1 0.8 1022.3 26.2
2018-Mar-07 12:00S 28°59' W 102°40'1 0.5 1022.0 26.2
2018-Mar-07 11:00S 28°59' W 102°40'0 0.0 1021.7 26.2
2018-Mar-07 10:00S 28°59' W 102°40'0 0.0 1021.7 26.2
2018-Mar-07 09:00S 28°59' W 102°40'1 0.1 1022.2 26.2
2018-Mar-07 04:00S 29°00' W 102°40'0 0.0 1023.6 26.6
2018-Mar-07 03:00S 29°00' W 102°40'1 0.5 1023.4 26.6
2018-Mar-07 02:00S 29°00' W 102°41'0 0.0 1023.0 26.7
2018-Mar-07 01:00S 29°00' W 102°41'1 0.5 1022.6 26.9
2018-Mar-07 00:00S 29°00' W 102°40'1 0.8 1022.4 27.0
2018-Mar-06 23:00S 29°01' W 102°40'1 0.4 1022.5 27.2
2018-Mar-06 21:00S 29°00' W 102°39'2 0.5 1023.0 27.4
2018-Mar-06 16:00S 29°02' W 102°38'1 0.8 1024.5 26.3
2018-Mar-06 15:00S 29°02' W 102°39'1 0.6 1024.1 26.2
2018-Mar-06 14:00S 29°02' W 102°39'1 0.3 1023.5 26.2
2018-Mar-06 12:00S 29°02' W 102°38'1 0.3 1022.6 26.2
2018-Mar-06 10:00S 29°02' W 102°39'0 0.0 1022.7 26.2
2018-Mar-06 09:00S 29°02' W 102°39'1 0.1 1022.7 26.2
2018-Mar-06 05:00S 29°02' W 102°38'0 0.0 1023.8 26.2
2018-Mar-06 04:00S 29°02' W 102°38'1 0.8 1023.9 26.3
2018-Mar-06 03:00S 29°03' W 102°38'0 0.0 1023.6 26.3
2018-Mar-06 02:00S 29°03' W 102°38'0 0.0 1023.3 26.4
2018-Mar-06 01:00S 29°03' W 102°38'1 0.5 1023.0 26.4
2018-Mar-06 00:00S 29°03' W 102°37'0 0.0 1022.9 26.4
2018-Mar-05 23:00S 29°03' W 102°37'1 0.3 1022.7 26.6
2018-Mar-05 21:00S 29°02' W 102°37'2 0.4 1023.0 26.4
2018-Mar-05 17:00S 29°03' W 102°35'0 0.0 1024.0 26.1
2018-Mar-05 16:00S 29°03' W 102°35'1 0.5 1023.7 26.1
2018-Mar-05 15:00S 29°03' W 102°35'1 0.6 1023.3 26.1
2018-Mar-05 14:00S 29°04' W 102°35'1 0.6 1022.8 26.1
2018-Mar-05 13:00S 29°04' W 102°35'1 0.5 1022.3 26.1
2018-Mar-05 12:00S 29°04' W 102°34'1 0.5 1022.0 26.1
2018-Mar-05 11:00S 29°04' W 102°35'0 0.0 1021.8 26.1
2018-Mar-05 10:00S 29°04' W 102°35'0 0.0 1022.0 26.1
2018-Mar-05 09:00S 29°04' W 102°35'1 0.2 1022.3 26.1
2018-Mar-05 05:00S 29°04' W 102°34'1 0.5 1023.4 26.2
2018-Mar-05 04:00S 29°04' W 102°34'1 0.8 1023.2 26.2
2018-Mar-05 03:00S 29°03' W 102°33'1 0.6 1022.8 26.2
2018-Mar-05 02:00S 29°04' W 102°33'1 0.6 1022.3 26.2
2018-Mar-05 01:00S 29°03' W 102°33'1 1.0 1022.0 26.2
2018-Mar-05 00:00S 29°03' W 102°32'0 0.0 1021.8 26.2
2018-Mar-04 23:00S 29°03' W 102°32'1 0.8 1021.8 26.2
2018-Mar-04 22:00S 29°02' W 102°31'0 0.0 1021.9 26.3
2018-Mar-04 21:00S 29°02' W 102°31'2 0.3 1022.1 26.3
2018-Mar-04 15:00S 29°02' W 102°29'1 0.8 1022.7 26.1
2018-Mar-04 14:00S 29°03' W 102°29'0 0.0 1022.1 26.1
2018-Mar-04 13:00S 29°03' W 102°29'0 0.0 1021.8 26.1
2018-Mar-04 12:00S 29°03' W 102°29'0 0.0 1021.5 26.1
2018-Mar-04 11:00S 29°03' W 102°29'0 0.0 1021.1 26.1
2018-Mar-04 10:00S 29°03' W 102°29'0 0.0 1021.1 26.1
2018-Mar-04 09:00S 29°03' W 102°29'0 0.0 1021.3 26.1
2018-Mar-04 08:00S 29°03' W 102°29'1 0.4 1021.7 26.1
2018-Mar-04 05:00S 29°02' W 102°28'1 0.8 1022.3 26.2
2018-Mar-04 04:00S 29°03' W 102°27'0 0.0 1022.2 26.3
2018-Mar-04 03:00S 29°03' W 102°27'1 0.5 1021.9 26.4
2018-Mar-04 02:00S 29°03' W 102°26'1 0.8 1021.2 26.4
2018-Mar-04 01:00S 29°04' W 102°27'1 0.5 1021.0 26.5
2018-Mar-03 23:00S 29°04' W 102°26'0 0.0 1020.6 26.6
2018-Mar-03 22:00S 29°04' W 102°26'2 0.3 1020.6 26.6
2018-Mar-03 16:00S 29°05' W 102°25'1 0.5 1021.6 26.1
2018-Mar-03 15:00S 29°05' W 102°24'1 0.6 1021.2 26.1
2018-Mar-03 13:00S 29°06' W 102°24'0 0.0 1020.2 26.1
2018-Mar-03 12:00S 29°06' W 102°24'1 0.2 1019.8 26.1
2018-Mar-03 09:00S 29°07' W 102°24'1 0.3 1020.0 26.2
2018-Mar-03 05:00S 29°08' W 102°24'1 0.5 1021.0 26.4
2018-Mar-03 04:00S 29°08' W 102°25'1 0.6 1021.1 26.4
2018-Mar-03 02:00S 29°09' W 102°25'0 0.0 1020.2 26.6
2018-Mar-03 01:00S 29°09' W 102°25'1 0.5 1019.8 26.7
2018-Mar-03 00:00S 29°09' W 102°25'0 0.0 1019.6 26.8
2018-Mar-02 22:00S 29°09' W 102°25'1 0.2 1019.8 26.9
2018-Mar-02 17:00S 29°10' W 102°26'1 0.8 1021.3 26.4
2018-Mar-02 16:00S 29°10' W 102°25'1 0.4 1021.4 26.2
2018-Mar-02 14:00S 29°11' W 102°26'0 0.0 1020.7 26.2
2018-Mar-02 13:00S 29°11' W 102°26'1 0.6 1020.1 26.2
2018-Mar-02 12:00S 29°11' W 102°26'1 0.5 1019.7 26.3
2018-Mar-02 11:00S 29°11' W 102°25'1 0.5 1019.6 26.4
2018-Mar-02 10:00S 29°11' W 102°26'0 0.0 1019.5 26.4
2018-Mar-02 09:00S 29°11' W 102°26'1 0.2 1019.9 26.4
2018-Mar-02 05:00S 29°12' W 102°26'1 0.6 1021.6 26.6
2018-Mar-02 04:00S 29°13' W 102°26'0 0.0 1021.6 26.8
2018-Mar-02 03:00S 29°13' W 102°26'0 0.0 1021.0 27.0
2018-Mar-02 02:00S 29°13' W 102°26'0 0.0 1020.6 27.3
2018-Mar-02 01:00S 29°13' W 102°26'1 1.2 1020.3 28.1
2018-Mar-02 00:00S 29°11' W 102°26'1 0.6 1020.1 28.4
2018-Mar-01 23:00S 29°12' W 102°26'1 0.5 1019.9 28.8
2018-Mar-01 22:00S 29°12' W 102°27'1 0.2 1020.3 28.2
2018-Mar-01 16:00S 29°11' W 102°26'1 0.8 1022.8 25.9
2018-Mar-01 15:00S 29°12' W 102°25'0 0.0 1022.3 25.9
2018-Mar-01 14:00S 29°12' W 102°25'1 0.5 1022.0 25.9
2018-Mar-01 13:00S 29°12' W 102°25'0 0.0 1021.8 25.9
2018-Mar-01 12:00S 29°12' W 102°25'1 0.6 1021.4 25.8
2018-Mar-01 11:00S 29°13' W 102°25'0 0.0 1021.0 25.9
2018-Mar-01 10:00S 29°13' W 102°25'1 0.2 1021.2 25.9
2018-Mar-01 05:00S 29°13' W 102°24'1 0.8 1023.5 25.9
2018-Mar-01 04:00S 29°13' W 102°25'1 0.8 1023.5 25.9
2018-Mar-01 03:00S 29°13' W 102°24'1 0.6 1023.1 26.0
2018-Mar-01 02:00S 29°13' W 102°24'1 0.6 1022.8 26.1
2018-Mar-01 01:00S 29°13' W 102°24'0 0.0 1022.4 26.1
2018-Mar-01 00:00S 29°13' W 102°24'1 0.6 1022.4 26.1
2018-Feb-28 23:00S 29°13' W 102°24'0 0.0 1022.4 26.1
2018-Feb-28 22:00S 29°13' W 102°24'   1022.7 26.2

Dump ship's entire track history